Time,TemperatureF,DewpointF,PressureIn,WindDirection,WindDirectionDegrees,WindSpeedMPH,WindSpeedGustMPH,Humidity,HourlyPrecipIn,Conditions,Clouds,dailyrainin,SoftwareType,DateUTC
2013-08-05 00:04:00,51.0,50.5,29.90,WNW,292,3.5,3.5,98,0.00,CLR,,0.00,WeatherDisplay:10.37,2013-08-05 07:04:00,
2013-08-05 00:09:00,51.0,50.5,29.90,WNW,292,4.0,4.0,98,0.00,CLR,,0.00,WeatherDisplay:10.37,2013-08-05 07:09:00,
2013-08-05 00:14:00,51.0,50.5,29.90,West,270,4.0,4.0,98,0.00,CLR,,0.00,WeatherDisplay:10.37,2013-08-05 07:14:00,
2013-08-05 00:19:00,51.0,50.5,29.90,WNW,292,3.5,3.5,98,0.00,CLR,,0.00,WeatherDisplay:10.37,2013-08-05 07:19:00,
2013-08-05 00:24:00,51.0,50.7,29.90,WNW,292,3.5,3.5,99,0.00,CLR,,0.00,WeatherDisplay:10.37,2013-08-05 07:24:00,
2013-08-05 00:29:00,51.0,50.7,29.90,WNW,292,3.5,3.5,99,0.00,CLR,,0.00,WeatherDisplay:10.37,2013-08-05 07:29:00,
2013-08-05 00:34:00,51.0,50.7,29.90,WNW,292,3.5,3.5,99,0.00,CLR,,0.00,WeatherDisplay:10.37,2013-08-05 07:34:00,
2013-08-05 00:39:00,51.0,50.7,29.90,WNW,292,3.5,3.5,99,0.00,CLR,,0.00,WeatherDisplay:10.37,2013-08-05 07:39:00,
2013-08-05 00:44:00,51.0,51.0,29.90,WNW,292,3.5,3.5,100,0.00,CLR,,0.00,WeatherDisplay:10.37,2013-08-05 07:44:00,
2013-08-05 00:49:00,50.0,50.0,29.90,WNW,292,3.5,3.5,100,0.00,CLR,,0.00,WeatherDisplay:10.37,2013-08-05 07:49:00,
2013-08-05 00:54:00,50.0,50.0,29.90,WNW,292,3.5,3.5,100,0.00,CLR,,0.00,WeatherDisplay:10.37,2013-08-05 07:54:00,
2013-08-05 00:59:00,51.0,51.0,29.90,WNW,292,4.6,4.6,100,0.00,CLR,,0.00,WeatherDisplay:10.37,2013-08-05 07:59:00,
2013-08-05 01:04:00,51.0,51.0,29.90,WNW,292,3.5,3.6,100,0.00,CLR,,0.00,WeatherDisplay:10.37,2013-08-05 08:04:00,
2013-08-05 01:09:00,51.0,51.0,29.90,WNW,292,3.5,3.5,100,0.00,CLR,,0.00,WeatherDisplay:10.37,2013-08-05 08:09:00,
2013-08-05 01:14:00,51.0,51.0,29.90,WNW,292,4.0,4.0,100,0.00,CLR,,0.00,WeatherDisplay:10.37,2013-08-05 08:14:00,
2013-08-05 01:19:00,51.0,51.0,29.90,WNW,292,3.5,3.5,100,0.00,CLR,,0.00,WeatherDisplay:10.37,2013-08-05 08:19:00,
2013-08-05 01:24:00,51.0,51.0,29.90,WNW,292,2.3,2.3,100,0.00,CLR,,0.00,WeatherDisplay:10.37,2013-08-05 08:24:00,
2013-08-05 01:29:00,51.0,51.0,29.90,WNW,292,2.3,0.0,100,0.00,CLR,,0.00,WeatherDisplay:10.37,2013-08-05 08:29:00,
2013-08-05 01:34:00,51.0,51.0,29.90,WNW,292,0.0,0.0,100,0.00,CLR,,0.00,WeatherDisplay:10.37,2013-08-05 08:34:00,
2013-08-05 01:39:00,51.0,51.0,29.90,WNW,292,0.0,0.0,100,0.00,CLR,,0.00,WeatherDisplay:10.37,2013-08-05 08:39:00,
2013-08-05 01:44:00,51.0,51.0,29.89,WNW,292,0.0,0.0,100,0.00,CLR,,0.00,WeatherDisplay:10.37,2013-08-05 08:44:00,
2013-08-05 01:50:00,51.0,51.0,29.89,WNW,292,0.0,0.0,100,0.00,CLR,,0.00,WeatherDisplay:10.37,2013-08-05 08:50:00,
2013-08-05 01:55:00,52.0,52.0,29.90,WNW,292,0.0,0.0,100,0.00,CLR,,0.00,WeatherDisplay:10.37,2013-08-05 08:55:00,
2013-08-05 02:01:00,52.0,52.0,29.90,WNW,292,0.0,0.0,100,0.00,CLR,,0.00,WeatherDisplay:10.37,2013-08-05 09:01:00,
2013-08-05 02:06:00,52.0,52.0,29.90,WNW,292,0.0,0.0,100,0.00,CLR,,0.00,WeatherDisplay:10.37,2013-08-05 09:06:00,
2013-08-05 02:11:00,52.0,52.0,29.89,WNW,292,1.1,1.1,100,0.00,CLR,,0.00,WeatherDisplay:10.37,2013-08-05 09:11:00,
2013-08-05 02:16:00,52.0,52.0,29.89,WNW,292,0.0,0.0,100,0.00,CLR,,0.00,WeatherDisplay:10.37,2013-08-05 09:16:00,
2013-08-05 02:22:00,53.0,53.0,29.89,SW,225,3.5,3.5,100,0.00,CLR,,0.00,WeatherDisplay:10.37,2013-08-05 09:22:00,
2013-08-05 02:27:00,53.0,53.0,29.89,WSW,247,3.5,3.5,100,0.00,CLR,,0.00,WeatherDisplay:10.37,2013-08-05 09:27:00,
2013-08-05 02:32:00,53.0,53.0,29.89,West,270,6.0,6.0,100,0.00,CLR,,0.00,WeatherDisplay:10.37,2013-08-05 09:32:00,
2013-08-05 02:37:00,53.0,53.0,29.90,SW,225,2.0,2.0,100,0.00,CLR,,0.00,WeatherDisplay:10.37,2013-08-05 09:37:00,
2013-08-05 02:42:00,53.0,53.0,29.90,WSW,247,2.3,2.3,100,0.00,CLR,,0.00,WeatherDisplay:10.37,2013-08-05 09:42:00,
2013-08-05 02:47:00,53.0,53.0,29.90,WSW,247,4.6,4.6,100,0.00,CLR,,0.00,WeatherDisplay:10.37,2013-08-05 09:47:00,
2013-08-05 02:52:00,53.0,53.0,29.90,SW,225,3.5,3.5,100,0.00,CLR,,0.00,WeatherDisplay:10.37,2013-08-05 09:52:00,
2013-08-05 02:58:00,53.0,53.0,29.90,West,270,3.5,3.5,100,0.00,CLR,,0.00,WeatherDisplay:10.37,2013-08-05 09:58:00,
2013-08-05 03:03:00,53.0,53.0,29.90,West,270,6.0,6.0,100,0.00,CLR,,0.00,WeatherDisplay:10.37,2013-08-05 10:03:00,
2013-08-05 03:10:00,53.0,53.0,29.90,West,270,4.6,4.6,100,0.00,CLR,,0.00,WeatherDisplay:10.37,2013-08-05 10:10:00,
2013-08-05 03:15:00,53.0,52.7,29.90,West,270,5.8,5.8,99,0.00,CLR,,0.00,WeatherDisplay:10.37,2013-08-05 10:15:00,
2013-08-05 03:20:00,53.0,52.7,29.90,West,270,3.5,3.5,99,0.00,CLR,,0.00,WeatherDisplay:10.37,2013-08-05 10:20:00,
2013-08-05 03:26:00,53.0,52.7,29.90,West,270,7.0,7.0,99,0.00,CLR,,0.00,WeatherDisplay:10.37,2013-08-05 10:26:00,
2013-08-05 03:32:00,53.0,52.5,29.90,WSW,247,3.5,3.5,98,0.00,CLR,,0.00,WeatherDisplay:10.37,2013-08-05 10:32:00,
2013-08-05 03:37:00,53.0,52.5,29.90,West,270,6.0,6.0,98,0.00,CLR,,0.00,WeatherDisplay:10.37,2013-08-05 10:37:00,
2013-08-05 03:42:00,53.0,52.5,29.90,SW,225,4.6,4.6,98,0.00,CLR,,0.00,WeatherDisplay:10.37,2013-08-05 10:42:00,
2013-08-05 03:47:00,53.0,52.5,29.90,SW,225,1.0,1.0,98,0.00,CLR,,0.00,WeatherDisplay:10.37,2013-08-05 10:47:00,
2013-08-05 03:52:00,53.0,52.5,29.90,West,270,2.3,0.0,98,0.00,CLR,,0.00,WeatherDisplay:10.37,2013-08-05 10:52:00,
2013-08-05 03:57:00,53.0,52.7,29.90,SW,225,3.5,3.5,99,0.00,CLR,,0.00,WeatherDisplay:10.37,2013-08-05 10:57:00,
2013-08-05 04:02:00,53.0,52.5,29.89,SW,225,3.5,3.5,98,0.00,CLR,,0.00,WeatherDisplay:10.37,2013-08-05 11:02:00,
2013-08-05 04:07:00,53.0,52.5,29.89,West,270,3.0,3.0,98,0.00,CLR,,0.00,WeatherDisplay:10.37,2013-08-05 11:07:00,
2013-08-05 04:12:00,53.0,52.5,29.89,WSW,247,1.1,1.1,98,0.00,CLR,,0.00,WeatherDisplay:10.37,2013-08-05 11:12:00,
2013-08-05 04:17:00,53.0,52.5,29.89,SW,225,3.5,3.5,98,0.00,CLR,,0.00,WeatherDisplay:10.37,2013-08-05 11:17:00,
2013-08-05 04:23:00,54.0,53.2,29.89,SE,135,3.5,3.5,97,0.00,CLR,,0.00,WeatherDisplay:10.37,2013-08-05 11:23:00,
2013-08-05 04:28:00,54.0,53.2,29.89,SE,135,3.5,3.5,97,0.00,CLR,,0.00,WeatherDisplay:10.37,2013-08-05 11:28:00,
2013-08-05 04:34:00,53.0,52.2,29.89,SE,135,2.3,2.3,97,0.00,CLR,,0.00,WeatherDisplay:10.37,2013-08-05 11:34:00,
2013-08-05 04:39:00,54.0,53.4,29.89,SE,135,0.0,0.0,98,0.00,CLR,,0.00,WeatherDisplay:10.37,2013-08-05 11:39:00,
2013-08-05 04:44:00,54.0,53.4,29.89,SE,135,0.0,0.0,98,0.00,CLR,,0.00,WeatherDisplay:10.37,2013-08-05 11:44:00,
2013-08-05 04:48:00,54.0,53.2,29.89,SE,135,1.1,1.1,97,0.00,CLR,,0.00,WeatherDisplay:10.37,2013-08-05 11:48:00,
2013-08-05 04:53:00,54.0,53.2,29.89,WNW,292,5.8,5.8,97,0.00,CLR,,0.00,WeatherDisplay:10.37,2013-08-05 11:53:00,
2013-08-05 04:59:00,54.0,53.2,29.89,NW,315,3.5,3.5,97,0.00,CLR,,0.00,WeatherDisplay:10.37,2013-08-05 11:59:00,
2013-08-05 05:03:00,54.0,53.2,29.89,NW,315,3.0,3.0,97,0.00,CLR,,0.00,WeatherDisplay:10.37,2013-08-05 12:03:00,
2013-08-05 05:09:00,54.0,52.9,29.89,NW,315,6.9,6.9,96,0.00,CLR,,0.00,WeatherDisplay:10.37,2013-08-05 12:09:00,
2013-08-05 05:14:00,54.0,53.2,29.90,West,270,3.5,3.5,97,0.00,CLR,,0.00,WeatherDisplay:10.37,2013-08-05 12:14:00,
2013-08-05 05:19:00,54.0,53.2,29.90,NNW,337,4.6,4.6,97,0.00,CLR,,0.00,WeatherDisplay:10.37,2013-08-05 12:19:00,
2013-08-05 05:24:00,53.0,52.2,29.90,NW,315,5.0,5.0,97,0.00,CLR,,0.00,WeatherDisplay:10.37,2013-08-05 12:24:00,
2013-08-05 05:29:00,53.0,52.2,29.90,NW,315,6.9,6.9,97,0.00,CLR,,0.00,WeatherDisplay:10.37,2013-08-05 12:29:00,
2013-08-05 05:34:00,53.0,52.5,29.90,NW,315,6.9,6.9,98,0.00,CLR,,0.00,WeatherDisplay:10.37,2013-08-05 12:34:00,
2013-08-05 05:39:00,53.0,52.5,29.90,NW,315,7.0,7.0,98,0.00,CLR,,0.00,WeatherDisplay:10.37,2013-08-05 12:39:00,
2013-08-05 05:44:00,53.0,52.2,29.90,NW,315,6.9,6.9,97,0.00,CLR,,0.00,WeatherDisplay:10.37,2013-08-05 12:44:00,
2013-08-05 05:49:00,53.0,52.2,29.90,NW,315,6.9,6.9,97,0.00,CLR,,0.00,WeatherDisplay:10.37,2013-08-05 12:49:00,
2013-08-05 05:54:00,53.0,52.2,29.91,NW,315,6.9,6.9,97,0.00,CLR,,0.00,WeatherDisplay:10.37,2013-08-05 12:54:00,
2013-08-05 06:00:00,53.0,52.2,29.91,NW,315,8.1,8.1,97,0.00,CLR,,0.00,WeatherDisplay:10.37,2013-08-05 13:00:00,
2013-08-05 06:05:00,53.0,52.2,29.91,West,270,6.9,6.9,97,0.00,CLR,,0.00,WeatherDisplay:10.37,2013-08-05 13:05:00,
2013-08-05 06:10:00,53.0,52.2,29.91,WNW,292,6.0,6.0,97,0.00,CLR,,0.00,WeatherDisplay:10.37,2013-08-05 13:10:00,
2013-08-05 06:15:00,52.0,51.2,29.91,NW,315,9.2,9.2,97,0.00,CLR,,0.00,WeatherDisplay:10.37,2013-08-05 13:15:00,
2013-08-05 06:20:00,52.0,51.5,29.91,WNW,292,5.8,5.8,98,0.00,CLR,,0.00,WeatherDisplay:10.37,2013-08-05 13:20:00,
2013-08-05 06:26:00,52.0,51.5,29.91,NW,315,6.9,6.9,98,0.00,CLR,,0.00,WeatherDisplay:10.37,2013-08-05 13:26:00,
2013-08-05 06:30:00,52.0,51.5,29.91,NNW,337,8.1,8.1,98,0.00,CLR,,0.00,WeatherDisplay:10.37,2013-08-05 13:30:00,
2013-08-05 06:35:00,52.0,51.5,29.91,WSW,247,4.6,4.6,98,0.00,CLR,,0.00,WeatherDisplay:10.37,2013-08-05 13:35:00,
2013-08-05 06:41:00,53.0,52.5,29.91,WNW,292,5.8,5.8,98,0.00,CLR,,0.00,WeatherDisplay:10.37,2013-08-05 13:41:00,
2013-08-05 06:46:00,52.0,51.5,29.91,NNW,337,5.8,5.8,98,0.00,CLR,,0.00,WeatherDisplay:10.37,2013-08-05 13:46:00,
2013-08-05 06:50:00,52.0,51.5,29.91,West,270,5.8,5.8,98,0.00,CLR,,0.00,WeatherDisplay:10.37,2013-08-05 13:50:00,
2013-08-05 06:56:00,53.0,52.7,29.91,SW,225,3.5,3.5,99,0.00,CLR,,0.00,WeatherDisplay:10.37,2013-08-05 13:56:00,
2013-08-05 07:02:00,53.0,52.7,29.91,West,270,2.3,2.3,99,0.00,CLR,,0.00,WeatherDisplay:10.37,2013-08-05 14:02:00,
2013-08-05 07:06:00,53.0,52.5,29.91,WSW,247,5.8,5.8,98,0.00,CLR,,0.00,WeatherDisplay:10.37,2013-08-05 14:06:00,
2013-08-05 07:12:00,53.0,52.5,29.91,SW,225,3.5,3.5,98,0.00,CLR,,0.00,WeatherDisplay:10.37,2013-08-05 14:12:00,
2013-08-05 07:16:00,53.0,52.5,29.91,SW,225,3.5,3.5,98,0.00,CLR,,0.00,WeatherDisplay:10.37,2013-08-05 14:16:00,
2013-08-05 07:22:00,53.0,52.5,29.92,WSW,247,2.3,2.3,98,0.00,CLR,,0.00,WeatherDisplay:10.37,2013-08-05 14:22:00,
2013-08-05 07:27:00,53.0,52.7,29.92,SW,225,5.8,5.8,99,0.00,CLR,,0.00,WeatherDisplay:10.37,2013-08-05 14:27:00,
2013-08-05 07:32:00,53.0,52.7,29.92,SW,225,3.5,3.5,99,0.00,CLR,,0.00,WeatherDisplay:10.37,2013-08-05 14:32:00,
2013-08-05 07:37:00,53.0,52.7,29.92,SW,225,4.6,4.6,99,0.00,CLR,,0.00,WeatherDisplay:10.37,2013-08-05 14:37:00,
2013-08-05 07:42:00,53.0,52.7,29.92,SW,225,4.6,4.6,99,0.00,CLR,,0.00,WeatherDisplay:10.37,2013-08-05 14:42:00,
2013-08-05 07:48:00,53.0,52.5,29.92,SW,225,5.8,5.8,98,0.00,CLR,,0.00,WeatherDisplay:10.37,2013-08-05 14:48:00,
2013-08-05 07:53:00,54.0,53.4,29.92,WSW,247,3.5,3.5,98,0.00,CLR,,0.00,WeatherDisplay:10.37,2013-08-05 14:53:00,
2013-08-05 07:59:00,54.0,53.4,29.93,SW,225,4.6,4.6,98,0.00,CLR,,0.00,WeatherDisplay:10.37,2013-08-05 14:59:00,
2013-08-05 08:04:00,54.0,53.2,29.92,SE,135,5.8,5.8,97,0.00,CLR,,0.00,WeatherDisplay:10.37,2013-08-05 15:04:00,
2013-08-05 08:09:00,54.0,53.2,29.93,SW,225,3.5,3.5,97,0.00,CLR,,0.00,WeatherDisplay:10.37,2013-08-05 15:09:00,
2013-08-05 08:14:00,54.0,52.9,29.92,SE,135,4.6,4.6,96,0.00,CLR,,0.00,WeatherDisplay:10.37,2013-08-05 15:14:00,
2013-08-05 08:19:00,54.0,52.9,29.93,ESE,112,4.6,4.6,96,0.00,CLR,,0.00,WeatherDisplay:10.37,2013-08-05 15:19:00,
2013-08-05 08:25:00,54.0,52.9,29.93,ESE,112,4.0,4.0,96,0.00,CLR,,0.00,WeatherDisplay:10.37,2013-08-05 15:25:00,
2013-08-05 08:30:00,54.0,52.9,29.93,East,90,5.8,5.8,96,0.00,CLR,,0.00,WeatherDisplay:10.37,2013-08-05 15:30:00,
2013-08-05 08:35:00,54.0,52.9,29.93,East,90,4.6,4.6,96,0.00,CLR,,0.00,WeatherDisplay:10.37,2013-08-05 15:35:00,
2013-08-05 08:40:00,54.0,52.9,29.93,East,90,3.5,3.5,96,0.00,CLR,,0.00,WeatherDisplay:10.37,2013-08-05 15:40:00,
2013-08-05 08:45:00,54.0,52.9,29.93,SE,135,3.0,3.0,96,0.00,CLR,,0.00,WeatherDisplay:10.37,2013-08-05 15:45:00,
2013-08-05 08:50:00,54.0,52.6,29.93,SE,135,5.0,5.0,95,0.00,CLR,,0.00,WeatherDisplay:10.37,2013-08-05 15:50:00,
2013-08-05 08:55:00,55.0,53.6,29.93,SE,135,4.0,4.0,95,0.00,CLR,,0.00,WeatherDisplay:10.37,2013-08-05 15:55:00,
2013-08-05 09:00:00,55.0,53.3,29.93,ESE,112,4.6,4.6,94,0.00,CLR,,0.00,WeatherDisplay:10.37,2013-08-05 16:00:00,
2013-08-05 09:06:00,55.0,53.0,29.93,ESE,112,3.5,3.5,93,0.00,CLR,,0.00,WeatherDisplay:10.37,2013-08-05 16:06:00,
2013-08-05 09:11:00,55.0,53.0,29.93,SE,135,6.0,6.0,93,0.00,CLR,,0.00,WeatherDisplay:10.37,2013-08-05 16:11:00,
2013-08-05 09:16:00,55.0,53.0,29.93,SE,135,4.6,4.6,93,0.00,CLR,,0.00,WeatherDisplay:10.37,2013-08-05 16:16:00,
2013-08-05 09:21:00,55.0,52.7,29.93,SE,135,4.0,4.0,92,0.00,CLR,,0.00,WeatherDisplay:10.37,2013-08-05 16:21:00,
2013-08-05 09:26:00,55.0,52.7,29.94,SE,135,3.5,3.5,92,0.00,CLR,,0.00,WeatherDisplay:10.37,2013-08-05 16:26:00,
2013-08-05 09:32:00,56.0,53.7,29.94,SE,135,0.0,0.0,92,0.00,CLR,,0.00,WeatherDisplay:10.37,2013-08-05 16:32:00,
2013-08-05 09:37:00,56.0,53.1,29.94,SE,135,5.8,5.8,90,0.00,CLR,,0.00,WeatherDisplay:10.37,2013-08-05 16:37:00,
2013-08-05 09:42:00,56.0,52.8,29.94,NNW,337,3.5,3.5,89,0.00,CLR,,0.00,WeatherDisplay:10.37,2013-08-05 16:42:00,
2013-08-05 09:47:00,57.0,53.8,29.94,SE,135,1.1,1.1,89,0.00,CLR,,0.00,WeatherDisplay:10.37,2013-08-05 16:47:00,
2013-08-05 09:52:00,58.0,54.2,29.94,East,90,4.6,4.6,87,0.00,CLR,,0.00,WeatherDisplay:10.37,2013-08-05 16:52:00,
2013-08-05 09:57:00,58.0,54.2,29.94,ESE,112,3.5,3.5,87,0.00,CLR,,0.00,WeatherDisplay:10.37,2013-08-05 16:57:00,
2013-08-05 10:02:00,59.0,54.8,29.94,North,360,2.3,2.3,86,0.00,CLR,,0.00,WeatherDisplay:10.37,2013-08-05 17:02:00,
2013-08-05 10:07:00,60.0,55.5,29.95,WSW,247,2.3,0.0,85,0.00,CLR,,0.00,WeatherDisplay:10.37,2013-08-05 17:07:00,
2013-08-05 10:12:00,59.0,53.5,29.95,SE,135,6.9,6.9,82,0.00,CLR,,0.00,WeatherDisplay:10.37,2013-08-05 17:12:00,
2013-08-05 10:18:00,59.0,53.8,29.95,North,360,5.8,5.8,83,0.00,CLR,,0.00,WeatherDisplay:10.37,2013-08-05 17:18:00,
2013-08-05 10:22:00,61.0,55.1,29.95,East,90,5.8,5.8,81,0.00,CLR,,0.00,WeatherDisplay:10.37,2013-08-05 17:22:00,
2013-08-05 10:28:00,61.0,54.8,29.95,ENE,67,7.0,7.0,80,0.00,CLR,,0.00,WeatherDisplay:10.37,2013-08-05 17:28:00,
2013-08-05 10:34:00,61.0,54.1,29.95,ENE,67,6.0,6.0,78,0.00,CLR,,0.00,WeatherDisplay:10.37,2013-08-05 17:34:00,
2013-08-05 10:39:00,61.0,53.4,29.95,East,90,9.2,9.2,76,0.00,CLR,,0.00,WeatherDisplay:10.37,2013-08-05 17:39:00,
2013-08-05 10:43:00,61.0,53.7,29.95,ESE,112,5.8,5.8,77,0.00,CLR,,0.00,WeatherDisplay:10.37,2013-08-05 17:43:00,
2013-08-05 10:49:00,62.0,53.6,29.95,SE,135,6.9,6.9,74,0.00,CLR,,0.00,WeatherDisplay:10.37,2013-08-05 17:49:00,
2013-08-05 10:54:00,62.0,54.0,29.95,ENE,67,5.8,5.8,75,0.00,CLR,,0.00,WeatherDisplay:10.37,2013-08-05 17:54:00,
2013-08-05 11:00:00,62.0,54.0,29.95,ENE,67,8.0,8.0,75,0.00,CLR,,0.00,WeatherDisplay:10.37,2013-08-05 18:00:00,
2013-08-05 11:05:00,63.0,54.2,29.95,SE,135,9.2,9.2,73,0.00,CLR,,0.00,WeatherDisplay:10.37,2013-08-05 18:05:00,
2013-08-05 11:10:00,64.0,54.8,29.95,East,90,5.8,5.8,72,0.00,CLR,,0.00,WeatherDisplay:10.37,2013-08-05 18:10:00,
2013-08-05 11:15:00,65.0,54.2,29.95,ESE,112,10.4,10.4,68,0.00,CLR,,0.00,WeatherDisplay:10.37,2013-08-05 18:15:00,
2013-08-05 11:20:00,64.0,53.6,29.95,ESE,112,9.2,9.2,69,0.00,CLR,,0.00,WeatherDisplay:10.37,2013-08-05 18:20:00,
2013-08-05 11:26:00,65.0,54.6,29.94,NNE,22,6.0,6.0,69,0.00,CLR,,0.00,WeatherDisplay:10.37,2013-08-05 18:26:00,
2013-08-05 11:31:00,66.0,54.7,29.94,SE,135,6.9,6.9,67,0.00,CLR,,0.00,WeatherDisplay:10.37,2013-08-05 18:31:00,
2013-08-05 11:37:00,66.0,54.3,29.94,SE,135,8.1,8.1,66,0.00,CLR,,0.00,WeatherDisplay:10.37,2013-08-05 18:37:00,
2013-08-05 11:43:00,67.0,54.8,29.94,East,90,9.2,9.2,65,0.00,CLR,,0.00,WeatherDisplay:10.37,2013-08-05 18:43:00,
2013-08-05 11:48:00,67.0,54.0,29.94,SE,135,9.2,9.2,63,0.00,CLR,,0.00,WeatherDisplay:10.37,2013-08-05 18:48:00,
2013-08-05 11:53:00,69.0,55.9,29.94,ESE,112,8.1,8.1,63,0.00,CLR,,0.00,WeatherDisplay:10.37,2013-08-05 18:53:00,
2013-08-05 11:58:00,69.0,55.4,29.94,ESE,112,8.1,8.1,62,0.00,CLR,,0.00,WeatherDisplay:10.37,2013-08-05 18:58:00,
2013-08-05 12:03:00,69.0,55.9,29.94,East,90,6.0,6.0,63,0.00,CLR,,0.00,WeatherDisplay:10.37,2013-08-05 19:03:00,
2013-08-05 12:08:00,69.0,55.0,29.94,East,90,10.4,10.4,61,0.00,CLR,,0.00,WeatherDisplay:10.37,2013-08-05 19:08:00,
2013-08-05 12:14:00,70.0,55.9,29.93,East,90,9.2,9.2,61,0.00,CLR,,0.00,WeatherDisplay:10.37,2013-08-05 19:14:00,
2013-08-05 12:19:00,71.0,56.4,29.93,East,90,11.5,11.5,60,0.00,CLR,,0.00,WeatherDisplay:10.37,2013-08-05 19:19:00,
2013-08-05 12:24:00,71.0,55.5,29.93,East,90,11.5,11.5,58,0.00,CLR,,0.00,WeatherDisplay:10.37,2013-08-05 19:24:00,
2013-08-05 12:29:00,71.0,56.4,29.93,SE,135,10.4,10.4,60,0.00,CLR,,0.00,WeatherDisplay:10.37,2013-08-05 19:29:00,
2013-08-05 12:34:00,71.0,55.5,29.93,East,90,10.4,10.4,58,0.00,CLR,,0.00,WeatherDisplay:10.37,2013-08-05 19:34:00,
2013-08-05 12:39:00,71.0,55.5,29.93,SE,135,11.5,11.5,58,0.00,CLR,,0.00,WeatherDisplay:10.37,2013-08-05 19:39:00,
2013-08-05 12:44:00,72.0,56.4,29.93,SE,135,11.5,11.5,58,0.00,CLR,,0.00,WeatherDisplay:10.37,2013-08-05 19:44:00,
2013-08-05 12:49:00,72.0,56.4,29.93,SE,135,12.7,12.7,58,0.00,CLR,,0.00,WeatherDisplay:10.37,2013-08-05 19:49:00,
2013-08-05 12:55:00,72.0,56.4,29.92,SE,135,13.0,13.0,58,0.00,CLR,,0.00,WeatherDisplay:10.37,2013-08-05 19:55:00,
2013-08-05 13:00:00,73.0,56.4,29.92,ESE,112,13.8,13.8,56,0.00,CLR,,0.00,WeatherDisplay:10.37,2013-08-05 20:00:00,
2013-08-05 13:06:00,72.0,55.4,29.92,SE,135,13.8,13.8,56,0.00,CLR,,0.00,WeatherDisplay:10.37,2013-08-05 20:06:00,
2013-08-05 13:11:00,73.0,56.4,29.92,SE,135,15.0,15.0,56,0.00,CLR,,0.00,WeatherDisplay:10.37,2013-08-05 20:11:00,
2013-08-05 13:16:00,72.0,55.9,29.92,ESE,112,16.1,16.1,57,0.00,CLR,,0.00,WeatherDisplay:10.37,2013-08-05 20:16:00,
2013-08-05 13:21:00,73.0,57.3,29.91,SE,135,15.0,15.0,58,0.00,CLR,,0.00,WeatherDisplay:10.37,2013-08-05 20:21:00,
2013-08-05 13:26:00,73.0,57.3,29.91,ESE,112,16.1,16.1,58,0.00,CLR,,0.00,WeatherDisplay:10.37,2013-08-05 20:26:00,
2013-08-05 13:31:00,73.0,57.3,29.91,ESE,112,17.3,17.3,58,0.00,CLR,,0.00,WeatherDisplay:10.37,2013-08-05 20:31:00,
2013-08-05 13:36:00,72.0,56.4,29.91,SE,135,18.4,18.4,58,0.00,CLR,,0.00,WeatherDisplay:10.37,2013-08-05 20:36:00,
2013-08-05 13:41:00,73.0,56.9,29.91,SE,135,13.8,13.8,57,0.00,CLR,,0.00,WeatherDisplay:10.37,2013-08-05 20:41:00,
2013-08-05 13:46:00,73.0,56.4,29.91,SE,135,17.3,17.3,56,0.00,CLR,,0.00,WeatherDisplay:10.37,2013-08-05 20:46:00,
2013-08-05 13:52:00,73.0,57.3,29.91,SE,135,17.3,17.3,58,0.00,CLR,,0.00,WeatherDisplay:10.37,2013-08-05 20:52:00,
2013-08-05 13:57:00,73.0,57.8,29.91,East,90,19.6,19.6,59,0.00,CLR,,0.00,WeatherDisplay:10.37,2013-08-05 20:57:00,
2013-08-05 14:02:00,73.0,57.3,29.91,ESE,112,17.3,17.3,58,0.00,CLR,,0.00,WeatherDisplay:10.37,2013-08-05 21:02:00,
2013-08-05 14:07:00,74.0,57.8,29.91,ESE,112,16.1,16.1,57,0.00,CLR,,0.00,WeatherDisplay:10.37,2013-08-05 21:07:00,
2013-08-05 14:12:00,74.0,57.3,29.91,ESE,112,15.0,15.0,56,0.00,CLR,,0.00,WeatherDisplay:10.37,2013-08-05 21:12:00,
2013-08-05 14:18:00,74.0,57.3,29.91,ESE,112,15.0,15.0,56,0.00,CLR,,0.00,WeatherDisplay:10.37,2013-08-05 21:18:00,
2013-08-05 14:23:00,75.0,57.7,29.90,ESE,112,17.3,17.3,55,0.00,CLR,,0.00,WeatherDisplay:10.37,2013-08-05 21:23:00,
2013-08-05 14:28:00,75.0,57.7,29.90,SE,135,12.7,12.7,55,0.00,CLR,,0.00,WeatherDisplay:10.37,2013-08-05 21:28:00,
2013-08-05 14:33:00,75.0,57.7,29.90,SE,135,17.3,17.3,55,0.00,CLR,,0.00,WeatherDisplay:10.37,2013-08-05 21:33:00,
2013-08-05 14:39:00,76.0,58.2,29.90,ESE,112,13.0,13.0,54,0.00,CLR,,0.00,WeatherDisplay:10.37,2013-08-05 21:39:00,
2013-08-05 14:44:00,76.0,57.6,29.89,SE,135,16.1,16.1,53,0.00,CLR,,0.00,WeatherDisplay:10.37,2013-08-05 21:44:00,
2013-08-05 14:49:00,76.0,57.6,29.89,SE,135,16.1,16.1,53,0.00,CLR,,0.00,WeatherDisplay:10.37,2013-08-05 21:49:00,
2013-08-05 14:55:00,76.0,57.1,29.89,SE,135,16.1,16.1,52,0.00,CLR,,0.00,WeatherDisplay:10.37,2013-08-05 21:55:00,
2013-08-05 15:00:00,76.0,57.6,29.89,SE,135,15.0,15.0,53,0.00,CLR,,0.00,WeatherDisplay:10.37,2013-08-05 22:00:00,
2013-08-05 15:05:00,76.0,58.2,29.89,SE,135,17.3,17.3,54,0.00,CLR,,0.00,WeatherDisplay:10.37,2013-08-05 22:05:00,
2013-08-05 15:11:00,76.0,57.6,29.89,SE,135,16.1,16.1,53,0.00,CLR,,0.00,WeatherDisplay:10.37,2013-08-05 22:11:00,
2013-08-05 15:16:00,77.0,58.0,29.89,SE,135,13.8,13.8,52,0.00,CLR,,0.00,WeatherDisplay:10.37,2013-08-05 22:16:00,
2013-08-05 15:22:00,77.0,57.5,29.89,SE,135,12.7,12.7,51,0.00,CLR,,0.00,WeatherDisplay:10.37,2013-08-05 22:22:00,
2013-08-05 15:28:00,77.0,57.5,29.88,SE,135,12.7,12.7,51,0.00,CLR,,0.00,WeatherDisplay:10.37,2013-08-05 22:28:00,
2013-08-05 15:33:00,78.0,57.9,29.88,SE,135,15.0,15.0,50,0.00,CLR,,0.00,WeatherDisplay:10.37,2013-08-05 22:33:00,
2013-08-05 15:38:00,77.0,58.0,29.88,SE,135,13.8,13.9,52,0.00,CLR,,0.00,WeatherDisplay:10.37,2013-08-05 22:38:00,
2013-08-05 15:43:00,77.0,58.0,29.88,ESE,112,16.1,16.1,52,0.00,CLR,,0.00,WeatherDisplay:10.37,2013-08-05 22:43:00,
2013-08-05 15:48:00,77.0,57.5,29.88,SE,135,17.3,17.3,51,0.00,CLR,,0.00,WeatherDisplay:10.37,2013-08-05 22:48:00,
2013-08-05 15:53:00,76.0,57.6,29.87,SE,135,16.1,16.1,53,0.00,CLR,,0.00,WeatherDisplay:10.37,2013-08-05 22:53:00,
2013-08-05 15:58:00,77.0,58.0,29.87,SE,135,15.0,15.0,52,0.00,CLR,,0.00,WeatherDisplay:10.37,2013-08-05 22:58:00,
2013-08-05 16:03:00,76.0,58.2,29.87,SE,135,15.0,15.0,54,0.00,CLR,,0.00,WeatherDisplay:10.37,2013-08-05 23:03:00,
2013-08-05 16:08:00,76.0,57.6,29.87,SE,135,16.1,16.1,53,0.00,CLR,,0.00,WeatherDisplay:10.37,2013-08-05 23:08:00,
2013-08-05 16:13:00,77.0,57.5,29.87,SE,135,15.0,15.0,51,0.00,CLR,,0.00,WeatherDisplay:10.37,2013-08-05 23:13:00,
2013-08-05 16:18:00,77.0,57.5,29.87,SE,135,16.1,16.1,51,0.00,CLR,,0.00,WeatherDisplay:10.37,2013-08-05 23:18:00,
2013-08-05 16:24:00,77.0,57.5,29.87,SE,135,16.1,16.1,51,0.00,CLR,,0.00,WeatherDisplay:10.37,2013-08-05 23:24:00,
2013-08-05 16:29:00,76.0,57.1,29.87,SE,135,15.0,15.0,52,0.00,CLR,,0.00,WeatherDisplay:10.37,2013-08-05 23:29:00,
2013-08-05 16:34:00,76.0,57.1,29.87,SE,135,15.0,15.0,52,0.00,CLR,,0.00,WeatherDisplay:10.37,2013-08-05 23:34:00,
2013-08-05 16:39:00,77.0,57.5,29.87,SE,135,17.3,17.3,51,0.00,CLR,,0.00,WeatherDisplay:10.37,2013-08-05 23:39:00,
2013-08-05 16:44:00,76.0,57.1,29.87,SE,135,15.0,15.0,52,0.00,CLR,,0.00,WeatherDisplay:10.37,2013-08-05 23:44:00,
2013-08-05 16:49:00,76.0,56.6,29.86,ESE,112,19.6,19.6,51,0.00,CLR,,0.00,WeatherDisplay:10.37,2013-08-05 23:49:00,
2013-08-05 16:55:00,75.0,56.7,29.86,ESE,112,15.0,15.0,53,0.00,CLR,,0.00,WeatherDisplay:10.37,2013-08-05 23:55:00,
2013-08-05 17:00:00,75.0,56.7,29.86,SE,135,15.0,15.0,53,0.00,CLR,,0.00,WeatherDisplay:10.37,2013-08-06 00:00:00,
2013-08-05 17:05:00,76.0,57.1,29.86,SE,135,17.0,17.0,52,0.00,CLR,,0.00,WeatherDisplay:10.37,2013-08-06 00:05:00,
2013-08-05 17:10:00,75.0,56.7,29.86,SE,135,13.8,13.8,53,0.00,CLR,,0.00,WeatherDisplay:10.37,2013-08-06 00:10:00,
2013-08-05 17:15:00,76.0,57.6,29.86,ESE,112,13.0,13.0,53,0.00,CLR,,0.00,WeatherDisplay:10.37,2013-08-06 00:15:00,
2013-08-05 17:20:00,76.0,57.1,29.86,SE,135,15.0,15.0,52,0.00,CLR,,0.00,WeatherDisplay:10.37,2013-08-06 00:20:00,
2013-08-05 17:26:00,76.0,57.1,29.86,SE,135,15.0,15.0,52,0.00,CLR,,0.00,WeatherDisplay:10.37,2013-08-06 00:26:00,
2013-08-05 17:31:00,75.0,56.7,29.86,ESE,112,16.1,16.1,53,0.00,CLR,,0.00,WeatherDisplay:10.37,2013-08-06 00:31:00,
2013-08-05 17:36:00,75.0,56.7,29.85,SE,135,13.8,13.8,53,0.00,CLR,,0.00,WeatherDisplay:10.37,2013-08-06 00:36:00,
2013-08-05 17:41:00,75.0,56.7,29.85,ESE,112,11.0,11.0,53,0.00,CLR,,0.00,WeatherDisplay:10.37,2013-08-06 00:41:00,
2013-08-05 17:46:00,75.0,56.7,29.85,SE,135,15.0,15.0,53,0.00,CLR,,0.00,WeatherDisplay:10.37,2013-08-06 00:46:00,
2013-08-05 17:51:00,74.0,56.3,29.85,SE,135,15.0,15.0,54,0.00,CLR,,0.00,WeatherDisplay:10.37,2013-08-06 00:51:00,
2013-08-05 17:57:00,74.0,56.3,29.85,SE,135,11.5,11.5,54,0.00,CLR,,0.00,WeatherDisplay:10.37,2013-08-06 00:57:00,
2013-08-05 18:02:00,74.0,55.8,29.85,SE,135,11.5,11.5,53,0.00,CLR,,0.00,WeatherDisplay:10.37,2013-08-06 01:02:00,
2013-08-05 18:07:00,74.0,56.8,29.85,SE,135,13.0,13.0,55,0.00,CLR,,0.00,WeatherDisplay:10.37,2013-08-06 01:07:00,
2013-08-05 18:12:00,74.0,56.8,29.85,SE,135,17.3,17.3,55,0.00,CLR,,0.00,WeatherDisplay:10.37,2013-08-06 01:12:00,
2013-08-05 18:17:00,73.0,56.9,29.85,SE,135,12.7,12.7,57,0.00,CLR,,0.00,WeatherDisplay:10.37,2013-08-06 01:17:00,
2013-08-05 18:22:00,73.0,56.9,29.85,SE,135,12.0,12.0,57,0.00,CLR,,0.00,WeatherDisplay:10.37,2013-08-06 01:22:00,
2013-08-05 18:27:00,73.0,57.3,29.85,SE,135,15.0,15.0,58,0.00,CLR,,0.00,WeatherDisplay:10.37,2013-08-06 01:27:00,
2013-08-05 18:32:00,72.0,57.8,29.85,SE,135,16.1,16.1,61,0.00,CLR,,0.00,WeatherDisplay:10.37,2013-08-06 01:32:00,
2013-08-05 18:37:00,71.0,56.9,29.85,SE,135,16.1,16.1,61,0.00,CLR,,0.00,WeatherDisplay:10.37,2013-08-06 01:37:00,
2013-08-05 18:42:00,70.0,56.8,29.85,SE,135,17.3,17.3,63,0.00,CLR,,0.00,WeatherDisplay:10.37,2013-08-06 01:42:00,
2013-08-05 18:47:00,70.0,57.7,29.85,SE,135,12.7,12.7,65,0.00,CLR,,0.00,WeatherDisplay:10.37,2013-08-06 01:47:00,
2013-08-05 18:52:00,69.0,57.2,29.85,ESE,112,12.7,12.7,66,0.00,CLR,,0.00,WeatherDisplay:10.37,2013-08-06 01:52:00,
2013-08-05 18:57:00,69.0,57.2,29.85,SE,135,10.4,10.4,66,0.00,CLR,,0.00,WeatherDisplay:10.37,2013-08-06 01:57:00,
2013-08-05 19:02:00,69.0,57.2,29.85,ESE,112,9.2,9.2,66,0.00,CLR,,0.00,WeatherDisplay:10.37,2013-08-06 02:02:00,
2013-08-05 19:07:00,69.0,57.6,29.85,East,90,12.7,12.7,67,0.00,CLR,,0.00,WeatherDisplay:10.37,2013-08-06 02:07:00,
2013-08-05 19:12:00,68.0,57.0,29.85,East,90,11.5,11.5,68,0.00,CLR,,0.00,WeatherDisplay:10.37,2013-08-06 02:12:00,
2013-08-05 19:17:00,68.0,57.4,29.85,ESE,112,12.7,12.7,69,0.00,CLR,,0.00,WeatherDisplay:10.37,2013-08-06 02:17:00,
2013-08-05 19:23:00,67.0,56.5,29.85,ESE,112,9.2,9.2,69,0.00,CLR,,0.00,WeatherDisplay:10.37,2013-08-06 02:23:00,
2013-08-05 19:28:00,67.0,56.5,29.85,SE,135,10.4,10.4,69,0.00,CLR,,0.00,WeatherDisplay:10.37,2013-08-06 02:28:00,
2013-08-05 19:33:00,66.0,56.3,29.85,East,90,8.1,8.1,71,0.00,CLR,,0.00,WeatherDisplay:10.37,2013-08-06 02:33:00,
2013-08-05 19:38:00,66.0,56.7,29.85,East,90,9.2,9.2,72,0.00,CLR,,0.00,WeatherDisplay:10.37,2013-08-06 02:38:00,
2013-08-05 19:43:00,65.0,56.5,29.85,East,90,9.2,9.2,74,0.00,CLR,,0.00,WeatherDisplay:10.37,2013-08-06 02:43:00,
2013-08-05 19:48:00,65.0,56.5,29.85,ESE,112,9.2,9.2,74,0.00,CLR,,0.00,WeatherDisplay:10.37,2013-08-06 02:48:00,
2013-08-05 19:53:00,64.0,55.9,29.85,East,90,5.8,5.8,75,0.00,CLR,,0.00,WeatherDisplay:10.37,2013-08-06 02:53:00,
2013-08-05 19:59:00,64.0,56.6,29.85,East,90,7.0,7.0,77,0.00,CLR,,0.00,WeatherDisplay:10.37,2013-08-06 02:59:00,
2013-08-05 20:04:00,63.0,55.7,29.85,ESE,112,9.2,9.2,77,0.00,CLR,,0.00,WeatherDisplay:10.37,2013-08-06 03:04:00,
2013-08-05 20:09:00,63.0,55.7,29.85,SE,135,8.1,8.1,77,0.00,CLR,,0.00,WeatherDisplay:10.37,2013-08-06 03:09:00,
2013-08-05 20:14:00,62.0,55.1,29.86,East,90,5.8,5.8,78,0.00,CLR,,0.00,WeatherDisplay:10.37,2013-08-06 03:14:00,
2013-08-05 20:19:00,62.0,56.1,29.86,ESE,112,9.2,9.2,81,0.00,CLR,,0.00,WeatherDisplay:10.37,2013-08-06 03:19:00,
2013-08-05 20:24:00,61.0,56.1,29.86,East,90,6.9,6.9,84,0.00,CLR,,0.00,WeatherDisplay:10.37,2013-08-06 03:24:00,
2013-08-05 20:30:00,60.0,55.2,29.86,ESE,112,4.0,4.0,84,0.00,CLR,,0.00,WeatherDisplay:10.37,2013-08-06 03:30:00,
2013-08-05 20:35:00,60.0,55.2,29.86,ENE,67,3.5,3.5,84,0.00,CLR,,0.00,WeatherDisplay:10.37,2013-08-06 03:35:00,
2013-08-05 20:40:00,59.0,54.2,29.86,ENE,67,0.0,0.3,84,0.00,CLR,,0.00,WeatherDisplay:10.37,2013-08-06 03:40:00,
2013-08-05 20:45:00,59.0,54.5,29.86,ENE,67,0.0,0.0,85,0.00,CLR,,0.00,WeatherDisplay:10.37,2013-08-06 03:45:00,
2013-08-05 20:51:00,58.0,53.8,29.86,ENE,67,0.0,0.0,86,0.00,CLR,,0.00,WeatherDisplay:10.37,2013-08-06 03:51:00,
2013-08-05 20:56:00,58.0,54.2,29.86,WNW,292,3.5,3.5,87,0.00,CLR,,0.00,WeatherDisplay:10.37,2013-08-06 03:56:00,
2013-08-05 21:01:00,58.0,54.5,29.86,WNW,292,3.5,3.5,88,0.00,CLR,,0.00,WeatherDisplay:10.37,2013-08-06 04:01:00,
2013-08-05 21:02:00,58.0,54.5,29.86,WNW,292,2.3,2.3,88,0.00,CLR,,0.00,WeatherDisplay:10.37,2013-08-06 04:02:00,
2013-08-05 21:07:00,57.0,52.9,29.86,NNW,337,3.5,3.5,86,0.00,CLR,,0.00,WeatherDisplay:10.37,2013-08-06 04:07:00,
2013-08-05 21:12:00,57.0,53.2,29.86,NNW,337,4.0,4.0,87,0.00,CLR,,0.00,WeatherDisplay:10.37,2013-08-06 04:12:00,
2013-08-05 21:17:00,56.0,52.2,29.86,NNW,337,2.3,2.3,87,0.00,CLR,,0.00,WeatherDisplay:10.37,2013-08-06 04:17:00,
2013-08-05 21:22:00,56.0,52.2,29.87,NNW,337,2.3,2.3,87,0.00,CLR,,0.00,WeatherDisplay:10.37,2013-08-06 04:22:00,
2013-08-05 21:27:00,56.0,52.2,29.87,NNW,337,0.0,0.0,87,0.00,CLR,,0.00,WeatherDisplay:10.37,2013-08-06 04:27:00,
2013-08-05 21:32:00,55.0,50.9,29.87,NNW,337,2.3,2.3,86,0.00,CLR,,0.00,WeatherDisplay:10.37,2013-08-06 04:32:00,
2013-08-05 21:37:00,55.0,51.5,29.87,NE,45,3.5,3.5,88,0.00,CLR,,0.00,WeatherDisplay:10.37,2013-08-06 04:37:00,
2013-08-05 21:42:00,55.0,51.5,29.87,ENE,67,3.5,3.5,88,0.00,CLR,,0.00,WeatherDisplay:10.37,2013-08-06 04:42:00,
2013-08-05 21:47:00,55.0,51.5,29.87,ENE,67,2.0,2.0,88,0.00,CLR,,0.00,WeatherDisplay:10.37,2013-08-06 04:47:00,
2013-08-05 21:52:00,54.0,50.5,29.87,ENE,67,0.0,0.0,88,0.00,CLR,,0.00,WeatherDisplay:10.37,2013-08-06 04:52:00,
2013-08-05 21:57:00,54.0,50.5,29.87,ENE,67,0.0,0.0,88,0.00,CLR,,0.00,WeatherDisplay:10.37,2013-08-06 04:57:00,
2013-08-05 22:02:00,53.0,49.5,29.87,ENE,67,0.0,0.0,88,0.00,CLR,,0.00,WeatherDisplay:10.37,2013-08-06 05:02:00,
2013-08-05 22:07:00,53.0,49.8,29.87,ENE,67,0.0,0.0,89,0.00,CLR,,0.00,WeatherDisplay:10.37,2013-08-06 05:07:00,
2013-08-05 22:12:00,53.0,49.5,29.87,ENE,67,0.0,0.0,88,0.00,CLR,,0.00,WeatherDisplay:10.37,2013-08-06 05:12:00,
2013-08-05 22:18:00,52.0,48.9,29.87,ENE,67,0.0,0.0,89,0.00,CLR,,0.00,WeatherDisplay:10.37,2013-08-06 05:18:00,
2013-08-05 22:23:00,52.0,49.2,29.87,ENE,67,0.0,0.0,90,0.00,CLR,,0.00,WeatherDisplay:10.37,2013-08-06 05:23:00,
2013-08-05 22:28:00,52.0,49.2,29.87,ENE,67,0.0,0.0,90,0.00,CLR,,0.00,WeatherDisplay:10.37,2013-08-06 05:28:00,
2013-08-05 22:33:00,52.0,49.7,29.87,ENE,67,0.0,0.0,92,0.00,CLR,,0.00,WeatherDisplay:10.37,2013-08-06 05:33:00,
2013-08-05 22:38:00,52.0,49.7,29.87,ENE,67,0.0,0.0,92,0.00,CLR,,0.00,WeatherDisplay:10.37,2013-08-06 05:38:00,
2013-08-05 22:43:00,52.0,49.7,29.87,ENE,67,0.0,0.0,92,0.00,CLR,,0.00,WeatherDisplay:10.37,2013-08-06 05:43:00,
2013-08-05 22:48:00,52.0,50.0,29.87,ENE,67,0.0,0.0,93,0.00,CLR,,0.00,WeatherDisplay:10.37,2013-08-06 05:48:00,
2013-08-05 22:53:00,51.0,49.0,29.87,ENE,67,0.0,0.0,93,0.00,CLR,,0.00,WeatherDisplay:10.37,2013-08-06 05:53:00,
2013-08-05 22:58:00,51.0,49.0,29.87,ENE,67,0.0,0.0,93,0.00,CLR,,0.00,WeatherDisplay:10.37,2013-08-06 05:58:00,
2013-08-05 23:03:00,51.0,49.0,29.87,NW,315,3.5,3.5,93,0.00,CLR,,0.00,WeatherDisplay:10.37,2013-08-06 06:03:00,
2013-08-05 23:08:00,51.0,49.0,29.87,NW,315,3.5,3.5,93,0.00,CLR,,0.00,WeatherDisplay:10.37,2013-08-06 06:08:00,
2013-08-05 23:13:00,51.0,49.6,29.87,NW,315,1.1,1.1,95,0.00,CLR,,0.00,WeatherDisplay:10.37,2013-08-06 06:13:00,
2013-08-05 23:18:00,51.0,49.6,29.87,NW,315,2.3,2.3,95,0.00,CLR,,0.00,WeatherDisplay:10.37,2013-08-06 06:18:00,
2013-08-05 23:23:00,51.0,49.6,29.87,NW,315,2.3,2.3,95,0.00,CLR,,0.00,WeatherDisplay:10.37,2013-08-06 06:23:00,
2013-08-05 23:28:00,51.0,49.6,29.87,WNW,292,3.5,3.5,95,0.00,CLR,,0.00,WeatherDisplay:10.37,2013-08-06 06:28:00,
2013-08-05 23:33:00,51.0,49.9,29.87,WNW,292,3.5,3.5,96,0.00,CLR,,0.00,WeatherDisplay:10.37,2013-08-06 06:33:00,
2013-08-05 23:38:00,51.0,49.6,29.87,WNW,292,3.5,3.5,95,0.00,CLR,,0.00,WeatherDisplay:10.37,2013-08-06 06:38:00,
2013-08-05 23:43:00,50.0,48.9,29.87,WNW,292,3.5,3.5,96,0.00,CLR,,0.00,WeatherDisplay:10.37,2013-08-06 06:43:00,
2013-08-05 23:48:00,50.0,49.2,29.87,WNW,292,3.5,3.5,97,0.00,CLR,,0.00,WeatherDisplay:10.37,2013-08-06 06:48:00,
2013-08-05 23:53:00,50.0,49.2,29.87,WNW,292,2.3,2.3,97,0.00,CLR,,0.00,WeatherDisplay:10.37,2013-08-06 06:53:00,
2013-08-05 23:58:00,50.0,49.2,29.87,WNW,292,3.5,3.5,97,0.00,CLR,,0.00,WeatherDisplay:10.37,2013-08-06 06:58:00,